createdAt,value
2019-02-06T00:00:04.484Z,48.6
2019-02-06T00:01:13.737Z,48.2
2019-02-06T00:02:23.085Z,48.4
2019-02-06T00:03:32.153Z,48.7
2019-02-06T00:04:41.357Z,48.7
2019-02-06T00:05:50.597Z,48.7
2019-02-06T00:06:59.798Z,48.4
2019-02-06T00:08:09.029Z,48.2
2019-02-06T00:09:18.232Z,48.3
2019-02-06T00:10:27.454Z,51
2019-02-06T00:11:36.665Z,48.5
2019-02-06T00:12:45.888Z,48.2
2019-02-06T00:13:55.102Z,48.6
2019-02-06T00:15:04.430Z,48.1
2019-02-06T00:16:13.540Z,48.1
2019-02-06T00:17:22.772Z,48.4
2019-02-06T00:18:32.088Z,48.1
2019-02-06T00:19:41.230Z,48.1
2019-02-06T00:20:50.412Z,48.3
2019-02-06T00:21:59.618Z,49.2
2019-02-06T00:23:08.856Z,49.2
2019-02-06T00:24:18.284Z,48
2019-02-06T00:25:27.258Z,48.4
2019-02-06T00:26:36.521Z,47.9
2019-02-06T00:27:45.725Z,47.7
2019-02-06T00:28:54.912Z,47.8
2019-02-06T00:30:04.168Z,47.3
2019-02-06T00:31:13.377Z,47.4
2019-02-06T00:32:22.564Z,47.6
2019-02-06T00:33:31.773Z,47.4
2019-02-06T00:34:40.990Z,47
2019-02-06T00:35:50.255Z,47.3
2019-02-06T00:36:59.432Z,47
2019-02-06T00:38:08.654Z,47
2019-02-06T00:39:17.892Z,46.9
2019-02-06T00:40:27.062Z,46.9
2019-02-06T00:41:36.560Z,46.9
2019-02-06T00:42:45.504Z,46.9
2019-02-06T00:43:54.717Z,46.9
2019-02-06T00:45:03.941Z,46.9
2019-02-06T00:46:13.224Z,46.9
2019-02-06T00:47:22.449Z,46.9
2019-02-06T00:48:31.627Z,46.8
2019-02-06T00:49:40.831Z,46.9
2019-02-06T00:50:50.041Z,46.8
2019-02-06T00:51:59.429Z,46.7
2019-02-06T00:53:08.682Z,46.5
2019-02-06T00:54:17.862Z,46.5
2019-02-06T00:55:27.073Z,46.9
2019-02-06T00:56:36.293Z,46
2019-02-06T00:57:45.499Z,46.4
2019-02-06T00:58:54.719Z,45.8
2019-02-06T01:00:03.951Z,46
2019-02-06T01:01:13.155Z,45.7
2019-02-06T01:02:22.467Z,45.7
2019-02-06T01:03:31.586Z,46.4
2019-02-06T01:04:40.852Z,45.3
2019-02-06T01:05:50.036Z,45.1
2019-02-06T01:06:59.279Z,47
2019-02-06T01:08:08.457Z,44.5
2019-02-06T01:09:17.672Z,44.8
2019-02-06T01:10:26.896Z,45
2019-02-06T01:11:36.114Z,45.2
2019-02-06T01:12:45.415Z,45.7
2019-02-06T01:13:54.542Z,44.9
2019-02-06T01:15:03.747Z,45.5
2019-02-06T01:16:13.007Z,44.7
2019-02-06T01:17:22.194Z,44.5
2019-02-06T01:18:31.508Z,44.6
2019-02-06T01:19:40.629Z,44.5
2019-02-06T01:20:51.549Z,44.5
2019-02-06T01:22:00.743Z,44.6
2019-02-06T01:23:10.014Z,44.2
2019-02-06T01:24:19.189Z,43.8
2019-02-06T01:25:28.412Z,44.8
2019-02-06T01:26:37.613Z,43.9
2019-02-06T01:27:46.846Z,44.1
2019-02-06T01:28:56.061Z,44.4
2019-02-06T01:30:05.291Z,44
2019-02-06T01:31:14.544Z,44.1
2019-02-06T01:32:23.710Z,43
2019-02-06T01:33:33.118Z,45.4
2019-02-06T01:34:42.226Z,43.7
2019-02-06T01:35:51.433Z,43
2019-02-06T01:37:00.589Z,44.9
2019-02-06T01:39:19.024Z,43.1
2019-02-06T01:40:28.231Z,43.5
2019-02-06T01:41:37.481Z,43.9
2019-02-06T01:42:46.672Z,44.2
2019-02-06T01:43:55.884Z,43.1
2019-02-06T01:45:05.112Z,42.8
2019-02-06T01:46:14.337Z,43.1
2019-02-06T01:47:23.539Z,43
2019-02-06T01:48:32.769Z,43.4
2019-02-06T01:49:44.985Z,43
2019-02-06T01:50:51.187Z,43
2019-02-06T01:52:00.447Z,43
2019-02-06T01:53:09.643Z,43
2019-02-06T01:54:19.060Z,42.6
2019-02-06T01:55:28.050Z,42.8
2019-02-06T01:56:37.275Z,42.6
2019-02-06T01:57:46.523Z,42.2
2019-02-06T01:58:55.694Z,42.8
2019-02-06T02:00:04.945Z,42.4
2019-02-06T02:01:14.125Z,42.8
2019-02-06T02:02:23.355Z,42.6
2019-02-06T02:03:32.599Z,42.8
2019-02-06T02:04:41.782Z,42.8
2019-02-06T02:06:02.816Z,42.5
2019-02-06T02:07:00.211Z,42.7
2019-02-06T02:08:09.433Z,42.9
2019-02-06T02:09:18.649Z,44.4
2019-02-06T02:10:27.889Z,43.6
2019-02-06T02:11:37.097Z,42.9
2019-02-06T02:12:46.374Z,42.9
2019-02-06T02:13:55.504Z,43.1
2019-02-06T02:15:04.722Z,43.1
2019-02-06T02:16:14.007Z,43.3
2019-02-06T02:17:23.259Z,43.2
2019-02-06T02:18:32.388Z,43.1
2019-02-06T02:19:41.631Z,42.7
2019-02-06T02:20:50.821Z,42.8
2019-02-06T02:22:00.030Z,42.9
2019-02-06T02:23:09.270Z,42.6
2019-02-06T02:24:18.432Z,42.7
2019-02-06T02:25:27.659Z,42
2019-02-06T02:26:36.863Z,42
2019-02-06T02:27:46.079Z,42.4
2019-02-06T02:28:55.303Z,42.4
2019-02-06T02:30:04.501Z,42.5
2019-02-06T02:31:13.735Z,41.7
2019-02-06T02:32:22.948Z,42
2019-02-06T02:33:32.148Z,42.2
2019-02-06T02:34:41.395Z,41.5
2019-02-06T02:35:50.602Z,41.9
2019-02-06T02:36:59.787Z,41.2
2019-02-06T02:38:09.036Z,41
2019-02-06T02:39:18.216Z,41
2019-02-06T02:40:27.477Z,41.4
2019-02-06T02:41:36.656Z,41
2019-02-06T02:42:45.876Z,40.3
2019-02-06T02:43:55.109Z,41
2019-02-06T02:45:04.300Z,41.1
2019-02-06T02:46:13.547Z,41
2019-02-06T02:47:22.726Z,41
2019-02-06T02:48:31.959Z,41
2019-02-06T02:49:41.177Z,40.5
2019-02-06T02:50:50.413Z,40.1
2019-02-06T02:51:59.595Z,39.6
2019-02-06T02:53:08.825Z,39.4
2019-02-06T02:54:18.013Z,39.5
2019-02-06T02:55:27.230Z,39.4
2019-02-06T02:56:36.439Z,39
2019-02-06T02:57:45.651Z,39.3
2019-02-06T02:58:54.870Z,38.4
2019-02-06T03:00:04.128Z,38.8
2019-02-06T03:01:13.301Z,38.9
2019-02-06T03:02:22.615Z,39
2019-02-06T03:03:31.747Z,38.4
2019-02-06T03:04:41.097Z,38.6
2019-02-06T03:05:50.167Z,38.7
2019-02-06T03:06:59.375Z,38.6
2019-02-06T03:08:08.615Z,38.6
2019-02-06T03:09:17.806Z,36.7
2019-02-06T03:10:27.028Z,37.1
2019-02-06T03:11:36.320Z,36.9
2019-02-06T03:12:45.578Z,36.9
2019-02-06T03:13:54.710Z,36.1
2019-02-06T03:15:03.894Z,36.5
2019-02-06T03:16:13.118Z,36.6
2019-02-06T03:17:22.315Z,36.5
2019-02-06T03:18:31.590Z,36.8
2019-02-06T03:19:40.761Z,37.4
2019-02-06T03:20:50.013Z,36.7
2019-02-06T03:21:59.184Z,37.4
2019-02-06T03:23:08.393Z,36.6
2019-02-06T03:24:17.608Z,36.6
2019-02-06T03:25:26.817Z,37.7
2019-02-06T03:26:36.086Z,37.2
2019-02-06T03:27:45.260Z,37.2
2019-02-06T03:28:54.535Z,36.7
2019-02-06T03:30:03.687Z,36.3
2019-02-06T03:31:12.929Z,36.7
2019-02-06T03:32:22.450Z,36.4
2019-02-06T03:33:31.394Z,36
2019-02-06T03:34:40.537Z,36.1
2019-02-06T03:35:49.770Z,36.8
2019-02-06T03:36:58.979Z,35.7
2019-02-06T03:38:08.208Z,36
2019-02-06T03:39:17.486Z,36.2
2019-02-06T03:40:26.649Z,36.7
2019-02-06T03:41:35.974Z,36.1
2019-02-06T03:42:45.061Z,36.4
2019-02-06T03:43:54.490Z,36.5
2019-02-06T03:45:03.485Z,36.4
2019-02-06T03:46:12.720Z,36.4
2019-02-06T03:47:22.008Z,36.6
2019-02-06T03:48:31.133Z,36.6
2019-02-06T03:49:43.038Z,36.9
2019-02-06T03:50:49.565Z,36.4
2019-02-06T03:51:58.778Z,36.4
2019-02-06T03:53:08.353Z,36.1
2019-02-06T03:54:17.737Z,36.4
2019-02-06T03:55:26.858Z,36.3
2019-02-06T03:56:35.961Z,36
2019-02-06T03:57:45.306Z,36.7
2019-02-06T03:58:54.444Z,36.3
2019-02-06T04:00:03.662Z,36.9
2019-02-06T04:01:12.911Z,36.9
2019-02-06T04:02:22.137Z,36.9
2019-02-06T04:03:31.286Z,37.5
2019-02-06T04:04:40.476Z,38
2019-02-06T04:05:49.729Z,38.1
2019-02-06T04:07:02.217Z,38.1
2019-02-06T04:08:08.174Z,38.3
2019-02-06T04:09:17.343Z,38.5
2019-02-06T04:10:26.492Z,38.9
2019-02-06T04:11:35.824Z,38.6
2019-02-06T04:12:45.021Z,39.1
2019-02-06T04:13:54.171Z,39.3
2019-02-06T04:15:03.481Z,39.3
2019-02-06T04:16:12.633Z,39.8
2019-02-06T04:17:21.913Z,39.6
2019-02-06T04:18:31.113Z,40.2
2019-02-06T04:19:40.280Z,40.5
2019-02-06T04:20:49.504Z,40.5
2019-02-06T04:21:58.491Z,40.2
2019-02-06T04:23:07.862Z,40.3
2019-02-06T04:24:17.046Z,41.1
2019-02-06T04:25:26.225Z,43.7
2019-02-06T04:26:35.470Z,42.7
2019-02-06T04:27:44.696Z,42.7
2019-02-06T04:28:53.689Z,42.8
2019-02-06T04:30:03.006Z,42.5
2019-02-06T04:31:12.115Z,42.4
2019-02-06T04:32:23.734Z,42.5
2019-02-06T04:33:30.550Z,42.4
2019-02-06T04:34:39.761Z,43.2
2019-02-06T04:35:48.963Z,42.9
2019-02-06T04:37:07.091Z,42.8
2019-02-06T04:38:07.408Z,42.8
2019-02-06T04:39:16.612Z,42.9
2019-02-06T04:40:25.847Z,43.3
2019-02-06T04:41:35.043Z,43.3
2019-02-06T04:42:44.337Z,43
2019-02-06T04:43:53.469Z,43.4
2019-02-06T04:45:02.683Z,43.8
2019-02-06T04:46:11.891Z,44.4
2019-02-06T04:47:21.128Z,48.4
2019-02-06T04:48:32.395Z,48.4
2019-02-06T04:49:39.517Z,50.3
2019-02-06T04:50:48.767Z,52.1
2019-02-06T04:51:57.973Z,52.1
2019-02-06T04:53:07.139Z,52.5
2019-02-06T04:54:16.490Z,53.9
2019-02-06T04:55:25.554Z,54.1
2019-02-06T04:56:34.779Z,53.8
2019-02-06T04:57:43.991Z,54.1
2019-02-06T04:58:53.172Z,54.4
2019-02-06T05:00:02.425Z,54.4
2019-02-06T05:01:11.582Z,54.5
2019-02-06T05:02:20.784Z,54.6
2019-02-06T05:03:30.121Z,54.9
2019-02-06T05:04:39.300Z,55.1
2019-02-06T05:05:48.389Z,55.6
2019-02-06T05:06:57.604Z,56.1
2019-02-06T05:08:06.797Z,56.2
2019-02-06T05:09:15.999Z,56.7
2019-02-06T05:10:25.203Z,57.5
2019-02-06T05:11:34.418Z,57.4
2019-02-06T05:12:43.608Z,57.4
2019-02-06T05:13:52.826Z,58
2019-02-06T05:15:02.024Z,58.3
2019-02-06T05:16:11.223Z,58.6
2019-02-06T05:17:20.457Z,58.8
2019-02-06T05:18:29.596Z,59.1
2019-02-06T05:19:38.800Z,59.7
2019-02-06T05:20:48.027Z,59.7
2019-02-06T05:21:57.501Z,60.2
2019-02-06T05:23:06.509Z,60.5
2019-02-06T05:24:15.631Z,60.8
2019-02-06T05:25:24.772Z,61.1
2019-02-06T05:26:33.985Z,61.6
2019-02-06T05:27:43.163Z,62.6
2019-02-06T05:28:52.382Z,62.6
2019-02-06T05:30:01.726Z,62.6
2019-02-06T05:31:10.740Z,62.6
2019-02-06T05:32:19.960Z,62.6
2019-02-06T05:33:29.125Z,62.6
2019-02-06T05:34:38.319Z,62.6
2019-02-06T05:35:47.572Z,62.5
2019-02-06T05:36:56.708Z,63.3
2019-02-06T05:38:05.902Z,62.5
2019-02-06T05:39:15.105Z,62.6
2019-02-06T05:40:24.286Z,62.6
2019-02-06T05:41:33.466Z,62.9
2019-02-06T05:42:42.646Z,64
2019-02-06T05:43:51.871Z,64.3
2019-02-06T05:45:01.144Z,64.3
2019-02-06T05:46:10.220Z,64.1
2019-02-06T05:47:19.443Z,64.7
2019-02-06T05:48:28.595Z,65.2
2019-02-06T05:49:37.813Z,65.1
2019-02-06T05:50:46.972Z,65.4
2019-02-06T05:51:56.160Z,65.8
2019-02-06T05:53:05.483Z,66
2019-02-06T05:54:14.537Z,66.4
2019-02-06T05:55:23.723Z,66.6
2019-02-06T05:56:32.971Z,66.8
2019-02-06T05:57:42.101Z,67.4
2019-02-06T05:58:51.277Z,67.7
2019-02-06T06:00:00.512Z,67.7
2019-02-06T06:01:09.637Z,68.3
2019-02-06T06:02:18.894Z,68.9
2019-02-06T06:03:28.020Z,68.9
2019-02-06T06:04:37.199Z,69.2
2019-02-06T06:05:46.438Z,69.5
2019-02-06T06:06:55.564Z,69.5
2019-02-06T06:08:04.747Z,69.8
2019-02-06T06:09:13.922Z,70.4
2019-02-06T06:10:23.108Z,71
2019-02-06T06:11:32.338Z,71.2
2019-02-06T06:12:41.501Z,71.3
2019-02-06T06:13:50.656Z,71.2
2019-02-06T06:14:59.827Z,71.3
2019-02-06T06:16:09.020Z,71.6
2019-02-06T06:17:18.187Z,71.6
2019-02-06T06:18:27.367Z,71.8
2019-02-06T06:19:36.539Z,71.8
2019-02-06T06:20:45.779Z,72.6
2019-02-06T06:21:54.914Z,72.7
2019-02-06T06:23:04.262Z,73
2019-02-06T06:24:13.273Z,72.6
2019-02-06T06:25:22.463Z,72.6
2019-02-06T06:26:31.744Z,72.6
2019-02-06T06:27:41.061Z,72.6
2019-02-06T06:28:49.981Z,72.6
2019-02-06T06:29:59.361Z,73.3
2019-02-06T06:31:08.343Z,73.3
2019-02-06T06:32:17.676Z,73.5
2019-02-06T06:33:26.694Z,73.5
2019-02-06T06:34:36.004Z,73.6
2019-02-06T06:35:45.075Z,73.7
2019-02-06T06:36:57.164Z,74
2019-02-06T06:38:03.514Z,74.1
2019-02-06T06:39:12.596Z,74.1
2019-02-06T06:40:21.785Z,73.9
2019-02-06T06:41:30.946Z,74.3
2019-02-06T06:42:40.128Z,74.6
2019-02-06T06:43:49.277Z,74.3
2019-02-06T06:44:58.468Z,74.8
2019-02-06T06:46:07.643Z,74.6
2019-02-06T06:47:16.816Z,74.8
2019-02-06T06:48:26.012Z,74.6
2019-02-06T06:49:35.201Z,75.1
2019-02-06T06:50:44.341Z,75.3
2019-02-06T06:51:53.537Z,75.1
2019-02-06T06:53:02.771Z,75.2
2019-02-06T06:54:11.868Z,76.1
2019-02-06T06:55:21.037Z,75.8
2019-02-06T06:56:30.237Z,74.7
2019-02-06T06:57:39.394Z,75
2019-02-06T06:58:48.592Z,74.8
2019-02-06T06:59:57.741Z,74.4
2019-02-06T07:01:06.902Z,74.3
2019-02-06T07:02:16.089Z,73.8
2019-02-06T07:03:25.285Z,73.6
2019-02-06T07:04:34.442Z,73.4
2019-02-06T07:05:43.662Z,72.6
2019-02-06T07:06:52.836Z,72.6
2019-02-06T07:08:13.076Z,72.6
2019-02-06T07:09:12.193Z,72
2019-02-06T07:10:21.371Z,72.3
2019-02-06T07:11:30.547Z,71.8
2019-02-06T07:12:39.738Z,71.4
2019-02-06T07:13:51.749Z,71.5
2019-02-06T07:14:58.107Z,70.9
2019-02-06T07:16:07.286Z,70.8
2019-02-06T07:17:16.535Z,70.8
2019-02-06T07:18:25.698Z,70.3
2019-02-06T07:19:34.873Z,69.5
2019-02-06T07:20:44.017Z,68.9
2019-02-06T07:21:53.213Z,68.3
2019-02-06T07:23:02.479Z,68.3
2019-02-06T07:24:11.581Z,68.5
2019-02-06T07:25:20.758Z,69
2019-02-06T07:26:29.941Z,69
2019-02-06T07:27:39.167Z,69.5
2019-02-06T07:28:48.324Z,69.7
2019-02-06T07:29:57.524Z,69.2
2019-02-06T07:31:06.703Z,69.6
2019-02-06T07:32:15.886Z,70.2
2019-02-06T07:33:25.097Z,69.7
2019-02-06T07:34:34.263Z,70.2
2019-02-06T07:35:43.463Z,70.5
2019-02-06T07:36:52.652Z,70.4
2019-02-06T07:38:01.847Z,70.1
2019-02-06T07:39:11.037Z,69.5
2019-02-06T07:40:20.218Z,69.3
2019-02-06T07:41:29.424Z,68.6
2019-02-06T07:42:38.689Z,68.7
2019-02-06T07:43:47.820Z,68.9
2019-02-06T07:44:56.990Z,67.5
2019-02-06T07:46:06.182Z,67.8
2019-02-06T07:47:15.371Z,68.1
2019-02-06T07:48:24.573Z,67.6
2019-02-06T07:49:33.754Z,67.3
2019-02-06T07:50:42.935Z,67.6
2019-02-06T07:51:52.149Z,67.6
2019-02-06T07:53:01.404Z,67.3
2019-02-06T07:54:10.661Z,66.4
2019-02-06T07:55:19.720Z,65.2
2019-02-06T07:56:29.003Z,65.2
2019-02-06T07:57:38.097Z,65.3
2019-02-06T07:58:47.360Z,65.3
2019-02-06T07:59:56.483Z,62.4
2019-02-06T08:01:05.687Z,62.1
2019-02-06T08:02:14.888Z,60.4
2019-02-06T08:03:24.082Z,61
2019-02-06T08:04:33.284Z,59.9
2019-02-06T08:05:42.468Z,58.8
2019-02-06T08:06:51.657Z,57.3
2019-02-06T08:08:00.875Z,57.3
2019-02-06T08:09:10.078Z,57.4
2019-02-06T08:10:19.264Z,58
2019-02-06T08:11:28.460Z,56.3
2019-02-06T08:12:37.652Z,56.8
2019-02-06T08:13:46.864Z,57.1
2019-02-06T08:14:56.083Z,57.1
2019-02-06T08:16:07.552Z,57.1
2019-02-06T08:17:14.527Z,57.3
2019-02-06T08:18:23.672Z,57.2
2019-02-06T08:20:42.087Z,58.3
2019-02-06T08:21:51.285Z,57.1
2019-02-06T08:23:00.491Z,57.2
2019-02-06T08:24:09.700Z,57.1
2019-02-06T08:25:18.875Z,57
2019-02-06T08:26:28.093Z,55.9
2019-02-06T08:27:37.277Z,55.5
2019-02-06T08:28:46.489Z,56.6
2019-02-06T08:29:55.686Z,55
2019-02-06T08:31:04.923Z,55.7
2019-02-06T08:32:14.085Z,55.6
2019-02-06T08:33:23.295Z,54.9
2019-02-06T08:34:32.519Z,53.8
2019-02-06T08:35:41.694Z,54.8
2019-02-06T08:36:50.986Z,54.2
2019-02-06T08:38:00.127Z,54.1
2019-02-06T08:39:09.429Z,55.2
2019-02-06T08:40:18.526Z,52.5
2019-02-06T08:41:27.732Z,53.9
2019-02-06T08:42:36.940Z,54.8
2019-02-06T08:43:46.217Z,53.6
2019-02-06T08:44:55.364Z,52
2019-02-06T08:46:04.577Z,52.8
2019-02-06T08:47:13.768Z,54.7
2019-02-06T08:48:23.006Z,53.3
2019-02-06T08:49:32.216Z,52.5
2019-02-06T08:50:41.439Z,52.5
2019-02-06T08:51:50.668Z,51.9
2019-02-06T08:52:59.819Z,51
2019-02-06T08:54:09.028Z,49.8
2019-02-06T08:55:18.256Z,50.1
2019-02-06T08:56:27.494Z,49.8
2019-02-06T08:57:36.716Z,50.3
2019-02-06T08:58:45.976Z,50.6
2019-02-06T08:59:55.108Z,48.4
2019-02-06T09:01:04.364Z,47.3
2019-02-06T09:02:13.561Z,48.6
2019-02-06T09:03:22.750Z,49.2
2019-02-06T09:04:31.998Z,44.8
2019-02-06T09:05:41.179Z,46.4
2019-02-06T09:06:50.418Z,47.5
2019-02-06T09:07:59.620Z,46.2
2019-02-06T09:09:08.834Z,46.7
2019-02-06T09:10:18.100Z,49.2
2019-02-06T09:11:27.290Z,48.4
2019-02-06T09:12:36.621Z,47.8
2019-02-06T09:13:45.734Z,45.1
2019-02-06T09:14:54.981Z,44.2
2019-02-06T09:16:04.204Z,45.3
2019-02-06T09:17:13.420Z,45.8
2019-02-06T09:18:22.651Z,45.5
2019-02-06T09:19:31.864Z,44.2
2019-02-06T09:20:41.114Z,41.9
2019-02-06T09:21:50.327Z,43
2019-02-06T09:22:59.559Z,41.5
2019-02-06T09:24:08.781Z,42.8
2019-02-06T09:25:18.043Z,44.4
2019-02-06T09:26:27.245Z,41.6
2019-02-06T09:27:36.505Z,41.4
2019-02-06T09:28:45.735Z,42.1
2019-02-06T09:29:54.979Z,41.3
2019-02-06T09:31:04.182Z,41.6
2019-02-06T09:32:13.429Z,40.3
2019-02-06T09:33:22.661Z,41.6
2019-02-06T09:34:31.908Z,41.6
2019-02-06T09:35:41.297Z,37
2019-02-06T09:36:50.386Z,39.1
2019-02-06T09:37:59.629Z,40.1
2019-02-06T09:39:12.122Z,41.3
2019-02-06T09:40:18.109Z,41.3
2019-02-06T09:41:27.337Z,41.4
2019-02-06T09:42:36.609Z,40.5
2019-02-06T09:43:45.830Z,39
2019-02-06T09:44:55.071Z,38.3
2019-02-06T09:46:04.304Z,36.1
2019-02-06T09:47:13.583Z,36
2019-02-06T09:48:22.793Z,37.1
2019-02-06T09:49:32.040Z,36.4
2019-02-06T09:50:41.320Z,36.4
2019-02-06T09:51:50.573Z,34.8
2019-02-06T09:52:59.873Z,36.2
2019-02-06T09:54:09.083Z,35.2
2019-02-06T09:55:18.337Z,35.4
2019-02-06T09:56:27.596Z,35.4
2019-02-06T09:57:36.873Z,34.3
2019-02-06T09:58:46.117Z,36.3
2019-02-06T09:59:55.386Z,37.6
2019-02-06T10:01:04.961Z,38.3
2019-02-06T10:02:13.915Z,37.3
2019-02-06T10:03:23.183Z,37.3
2019-02-06T10:04:32.546Z,37.4
2019-02-06T10:05:41.712Z,37.7
2019-02-06T10:06:50.970Z,37.7
2019-02-06T10:08:00.281Z,37.8
2019-02-06T10:09:09.520Z,37.3
2019-02-06T10:10:18.781Z,37.8
2019-02-06T10:11:28.033Z,37.3
2019-02-06T10:12:37.314Z,37.5
2019-02-06T10:13:46.566Z,39.3
2019-02-06T10:14:56.035Z,38.5
2019-02-06T10:16:05.191Z,38.1
2019-02-06T10:17:14.535Z,38.1
2019-02-06T10:18:23.666Z,37.6
2019-02-06T10:19:32.892Z,37.3
2019-02-06T10:20:42.215Z,37.2
2019-02-06T10:21:53.843Z,37
2019-02-06T10:23:00.709Z,36.3
2019-02-06T10:24:09.963Z,36.3
2019-02-06T10:25:19.235Z,36.3
2019-02-06T10:26:28.506Z,36.3
2019-02-06T10:27:37.795Z,36.2
2019-02-06T10:28:47.019Z,36
2019-02-06T10:29:56.287Z,36.4
2019-02-06T10:31:05.588Z,36.3
2019-02-06T10:32:14.860Z,35.7
2019-02-06T10:33:24.080Z,33.4
2019-02-06T10:34:33.345Z,35
2019-02-06T10:35:42.619Z,34.9
2019-02-06T10:36:51.924Z,32.5
2019-02-06T10:38:01.199Z,31.1
2019-02-06T10:39:10.438Z,31.2
2019-02-06T10:40:19.713Z,31.4
2019-02-06T10:41:28.983Z,30.6
2019-02-06T10:42:38.307Z,31.1
2019-02-06T10:43:47.615Z,32.5
2019-02-06T10:44:56.972Z,30.5
2019-02-06T10:46:06.291Z,30.2
2019-02-06T10:47:15.444Z,31.2
2019-02-06T10:48:24.783Z,29.3
2019-02-06T10:49:34.031Z,29.1
2019-02-06T10:50:43.331Z,27.7
2019-02-06T10:51:52.657Z,28.2
2019-02-06T10:53:01.950Z,29.7
2019-02-06T10:54:11.267Z,30
2019-02-06T10:55:20.530Z,29.3
2019-02-06T10:56:29.830Z,31
2019-02-06T10:57:39.173Z,30.6
2019-02-06T10:58:48.447Z,30.1
2019-02-06T10:59:57.762Z,30.2
2019-02-06T11:01:07.074Z,29.6
2019-02-06T11:02:16.537Z,29.9
2019-02-06T11:03:25.670Z,29
2019-02-06T11:04:35.028Z,29.3
2019-02-06T11:05:44.280Z,28
2019-02-06T11:06:53.596Z,28.5
2019-02-06T11:08:02.880Z,26.7
2019-02-06T11:09:12.185Z,26.8
2019-02-06T11:10:21.546Z,26
2019-02-06T11:11:30.823Z,27.2
2019-02-06T11:12:40.102Z,28.5
2019-02-06T11:13:50.040Z,28.2
2019-02-06T11:14:58.718Z,28
2019-02-06T11:16:08.018Z,29.3
2019-02-06T11:17:17.376Z,29.7
2019-02-06T11:18:26.643Z,29.4
2019-02-06T11:19:35.936Z,29.5
2019-02-06T11:20:45.242Z,29
2019-02-06T11:21:54.540Z,29.6
2019-02-06T11:23:04.077Z,28.8
2019-02-06T11:24:13.141Z,28.4
2019-02-06T11:25:22.444Z,28.9
2019-02-06T11:26:31.743Z,29.1
2019-02-06T11:27:41.087Z,29.1
2019-02-06T11:28:50.331Z,28.8
2019-02-06T11:29:59.648Z,28.8
2019-02-06T11:31:08.933Z,28.4
2019-02-06T11:32:18.231Z,28.9
2019-02-06T11:33:27.909Z,29
2019-02-06T11:34:36.877Z,28.4
2019-02-06T11:35:46.229Z,28
2019-02-06T11:36:55.452Z,28.4
2019-02-06T11:38:04.811Z,28.2
2019-02-06T11:39:14.060Z,28.2
2019-02-06T11:40:23.384Z,28.5
2019-02-06T11:41:32.675Z,27.7
2019-02-06T11:42:41.963Z,27.5
2019-02-06T11:43:51.343Z,27
2019-02-06T11:45:00.615Z,26.7
2019-02-06T11:46:09.954Z,26.8
2019-02-06T11:47:19.216Z,26.5
2019-02-06T11:48:28.529Z,26.8
2019-02-06T11:49:37.843Z,26
2019-02-06T11:50:47.170Z,26.8
2019-02-06T11:51:56.486Z,26.3
2019-02-06T11:53:05.798Z,26.3
2019-02-06T11:54:15.110Z,26.3
2019-02-06T11:55:24.425Z,26.8
2019-02-06T11:56:33.763Z,26.7
2019-02-06T11:57:43.071Z,26.7
2019-02-06T11:58:52.379Z,26.4
2019-02-06T12:00:01.732Z,25.5
2019-02-06T12:01:11.054Z,25.9
2019-02-06T12:02:20.328Z,25.2
2019-02-06T12:03:29.643Z,24.7
2019-02-06T12:04:38.982Z,25.2
2019-02-06T12:05:48.272Z,26
2019-02-06T12:06:57.599Z,25.9
2019-02-06T12:08:06.941Z,26.2
2019-02-06T12:09:16.274Z,26.7
2019-02-06T12:10:25.587Z,26.3
2019-02-06T12:11:34.885Z,25.9
2019-02-06T12:12:44.200Z,26.3
2019-02-06T12:13:53.511Z,25.9
2019-02-06T12:15:02.899Z,25.6
2019-02-06T12:16:12.178Z,25.7
2019-02-06T12:17:21.466Z,25.5
2019-02-06T12:18:30.795Z,25.5
2019-02-06T12:19:40.190Z,25.4
2019-02-06T12:20:49.466Z,25.5
2019-02-06T12:21:58.755Z,25.8
2019-02-06T12:23:08.065Z,26.1
2019-02-06T12:24:17.406Z,25.9
2019-02-06T12:25:26.743Z,25.6
2019-02-06T12:26:36.036Z,25.8
2019-02-06T12:27:45.393Z,25.4
2019-02-06T12:28:54.675Z,24.8
2019-02-06T12:30:04.002Z,26
2019-02-06T12:31:13.459Z,26.1
2019-02-06T12:32:22.671Z,26.5
2019-02-06T12:33:32.016Z,26.1
2019-02-06T12:34:41.292Z,26.1
2019-02-06T12:35:50.621Z,25.9
2019-02-06T12:36:59.933Z,25.9
2019-02-06T12:38:09.310Z,25.6
2019-02-06T12:39:18.589Z,26.4
2019-02-06T12:40:27.996Z,26.3
2019-02-06T12:41:37.256Z,26.8
2019-02-06T12:42:46.564Z,26.4
2019-02-06T12:43:55.948Z,25.7
2019-02-06T12:45:05.198Z,25.9
2019-02-06T12:46:14.604Z,26.3
2019-02-06T12:47:27.024Z,25.9
2019-02-06T12:48:33.202Z,26.9
2019-02-06T12:49:42.515Z,26.7
2019-02-06T12:50:51.795Z,26.9
2019-02-06T12:52:01.148Z,26.6
2019-02-06T12:53:10.494Z,26.8
2019-02-06T12:54:19.766Z,26.7
2019-02-06T12:55:29.072Z,26.7
2019-02-06T12:56:38.434Z,26.7
2019-02-06T12:57:47.705Z,26.9
2019-02-06T12:58:57.095Z,26.9
2019-02-06T13:00:06.347Z,26.8
2019-02-06T13:01:16.946Z,26.8
2019-02-06T13:02:26.176Z,26.8
2019-02-06T13:03:35.492Z,26.8
2019-02-06T13:04:44.797Z,26.7
2019-02-06T13:05:54.117Z,26.4
2019-02-06T13:07:03.580Z,26.3
2019-02-06T13:08:12.746Z,26
2019-02-06T13:09:22.299Z,26.3
2019-02-06T13:10:34.614Z,26.4
2019-02-06T13:11:40.721Z,26
2019-02-06T13:12:50.013Z,26.4
2019-02-06T13:13:59.361Z,26.1
2019-02-06T13:15:08.652Z,26.9
2019-02-06T13:16:17.982Z,26.2
2019-02-06T13:17:27.338Z,25.9
2019-02-06T13:18:36.604Z,25.8
2019-02-06T13:19:45.919Z,25.7
2019-02-06T13:20:55.222Z,25.6
2019-02-06T13:22:04.579Z,25.3
2019-02-06T13:23:13.858Z,25.5
2019-02-06T13:24:23.183Z,25.7
2019-02-06T13:25:32.598Z,25.7
2019-02-06T13:26:44.390Z,25.5
2019-02-06T13:27:52.340Z,25.8
2019-02-06T13:29:01.715Z,25.8
2019-02-06T13:30:10.986Z,25.8
2019-02-06T13:31:20.320Z,25.7
2019-02-06T13:32:29.583Z,26
2019-02-06T13:33:38.925Z,25.8
2019-02-06T13:34:48.341Z,26.1
2019-02-06T13:35:57.578Z,26.1
2019-02-06T13:37:06.854Z,26.3
2019-02-06T13:38:16.243Z,26.1
2019-02-06T13:39:25.485Z,25.9
2019-02-06T13:40:46.176Z,25.6
2019-02-06T13:41:44.120Z,25.6
2019-02-06T13:42:53.440Z,25.5
2019-02-06T13:44:02.761Z,25.8
2019-02-06T13:45:12.079Z,25.6
2019-02-06T13:46:21.426Z,25.9
2019-02-06T13:47:30.709Z,26.1
2019-02-06T13:48:40.031Z,26.3
2019-02-06T13:49:49.354Z,26.3
2019-02-06T13:50:58.667Z,26.1
2019-02-06T13:52:08.011Z,26.1
2019-02-06T13:53:17.350Z,26.9
2019-02-06T13:54:27.001Z,26.5
2019-02-06T13:55:36.235Z,26.6
2019-02-06T13:56:45.490Z,26.7
2019-02-06T13:57:54.911Z,26.9
2019-02-06T13:59:07.336Z,26.8
2019-02-06T14:00:13.470Z,26.8
2019-02-06T14:01:26.345Z,26.9
2019-02-06T14:02:32.250Z,26.9
2019-02-06T14:03:41.628Z,26.7
2019-02-06T14:04:50.856Z,27.2
2019-02-06T14:06:00.067Z,27.2
2019-02-06T14:07:09.367Z,27.3
2019-02-06T14:08:18.692Z,27.7
2019-02-06T14:09:27.958Z,27.8
2019-02-06T14:10:37.256Z,27.8
2019-02-06T14:11:46.635Z,27.7
2019-02-06T14:12:55.882Z,28
2019-02-06T14:14:04.925Z,28.2
2019-02-06T14:15:14.346Z,28.2
2019-02-06T14:16:23.575Z,28.2
2019-02-06T14:17:33.172Z,28.3
2019-02-06T14:18:42.157Z,28.2
2019-02-06T14:19:51.471Z,28.3
2019-02-06T14:21:00.841Z,28.7
2019-02-06T14:22:10.125Z,28.7
2019-02-06T14:23:19.364Z,29.2
2019-02-06T14:24:28.815Z,29.3
2019-02-06T14:25:37.928Z,29.6
2019-02-06T14:26:47.236Z,29.5
2019-02-06T14:27:56.577Z,29.7
2019-02-06T14:29:05.797Z,29.6
2019-02-06T14:30:15.176Z,30.1
2019-02-06T14:31:24.388Z,30.2
2019-02-06T14:32:33.826Z,29.9
2019-02-06T14:33:42.980Z,30.6
2019-02-06T14:34:52.283Z,30.5
2019-02-06T14:36:01.560Z,31
2019-02-06T14:37:10.839Z,31
2019-02-06T14:38:20.172Z,31
2019-02-06T14:39:29.441Z,31
2019-02-06T14:40:38.823Z,31
2019-02-06T14:41:48.046Z,30.9
2019-02-06T14:42:57.262Z,32.2
2019-02-06T14:44:06.553Z,32
2019-02-06T14:45:15.815Z,32.2
2019-02-06T14:46:25.092Z,32.9
2019-02-06T14:47:34.377Z,33.1
2019-02-06T14:48:43.712Z,32.8
2019-02-06T14:49:52.936Z,33.3
2019-02-06T14:51:02.204Z,33.5
2019-02-06T14:52:11.503Z,33.8
2019-02-06T14:53:20.758Z,33.9
2019-02-06T14:54:30.027Z,34.1
2019-02-06T14:55:39.286Z,34.1
2019-02-06T14:56:48.564Z,34
2019-02-06T14:57:57.875Z,34.4
2019-02-06T14:59:07.145Z,34.6
2019-02-06T15:00:16.539Z,34.6
2019-02-06T15:01:25.639Z,35.4
2019-02-06T15:02:34.902Z,35.1
2019-02-06T15:03:44.189Z,35.4
2019-02-06T15:04:53.442Z,35.7
2019-02-06T15:06:02.772Z,35.5
2019-02-06T15:07:12.026Z,36.3
2019-02-06T15:08:21.224Z,36.1
2019-02-06T15:09:30.490Z,36.3
2019-02-06T15:10:39.748Z,36.3
2019-02-06T15:11:49.007Z,36.3
2019-02-06T15:12:58.295Z,36.3
2019-02-06T15:14:07.508Z,36.2
2019-02-06T15:15:16.778Z,36.7
2019-02-06T15:16:26.120Z,36.2
2019-02-06T15:17:35.284Z,36.2
2019-02-06T15:18:44.547Z,36.2
2019-02-06T15:19:55.273Z,36.5
2019-02-06T15:21:03.056Z,36.8
2019-02-06T15:22:12.485Z,36.1
2019-02-06T15:23:33.605Z,36.8
2019-02-06T15:24:30.803Z,36.7
2019-02-06T15:25:40.122Z,36.9
2019-02-06T15:26:49.330Z,36.9
2019-02-06T15:27:58.560Z,36.9
2019-02-06T15:29:07.801Z,36.9